LFST 131330Z AUTO 11005KT 070V170 CAVOK 28/18 Q1014 TEMPO 24015G30KT TSRA FEW040 FEW060CB BKN080

TAF TAF LFST 131123Z 1312/1412 14005KT 9999 FEW055 BKN120 TEMPO 1313/1412 -SHRA FEW040 FEW060CB BKN080 PROB30 TEMPO 1314/1319 24015G30KT TSRA PROB30 TEMPO 1407/1412 TSRA

 

Temperature in degrees Celsius: 28
Dew Point Temperature in degrees Celsius: 18

 

http://openflyers.com/case/icingChart.php?chart=2&temperature=28&dewPoint=18